createdAt,value
2022-10-08T00:02:44.940Z,22.15
2022-10-08T00:05:31.462Z,21.45
2022-10-08T00:08:17.326Z,21.37
2022-10-08T00:11:13.253Z,21.05
2022-10-08T00:13:59.894Z,20.37
2022-10-08T00:16:46.464Z,21.73
2022-10-08T00:19:32.436Z,20.30
2022-10-08T00:22:19.062Z,19.37
2022-10-08T00:25:05.288Z,21.52
2022-10-08T00:27:51.417Z,20.57
2022-10-08T00:30:39.824Z,20.98
2022-10-08T00:33:26.205Z,21.37
2022-10-08T00:36:13.433Z,20.33
2022-10-08T00:39:02.841Z,19.45
2022-10-08T00:41:52.284Z,24.25
2022-10-08T00:44:59.454Z,21.77
2022-10-08T00:47:48.414Z,20.50
2022-10-08T00:50:35.963Z,21.37
2022-10-08T00:53:21.801Z,20.35
2022-10-08T00:56:09.193Z,20.88
2022-10-08T00:58:55.610Z,19.73
2022-10-08T01:01:43.570Z,21.58
2022-10-08T01:04:29.902Z,20.40
2022-10-08T01:07:30.361Z,20.35
2022-10-08T01:10:22.625Z,20.65
2022-10-08T01:13:29.393Z,19.85
2022-10-08T01:16:34.969Z,19.62
2022-10-08T01:19:39.115Z,19.23
2022-10-08T01:22:38.863Z,21.20
2022-10-08T01:25:35.519Z,20.00
2022-10-08T01:28:39.874Z,18.65
2022-10-08T01:31:41.090Z,21.15
2022-10-08T01:34:37.668Z,19.30
2022-10-08T01:37:29.530Z,18.30
2022-10-08T01:40:20.340Z,20.20
2022-10-08T01:43:08.646Z,19.65
2022-10-08T01:45:57.362Z,18.50
2022-10-08T01:48:44.184Z,18.85
2022-10-08T01:51:40.988Z,19.23
2022-10-08T01:54:28.910Z,19.77
2022-10-08T01:57:14.966Z,20.60
2022-10-08T02:00:08.206Z,16.75
2022-10-08T02:02:57.964Z,17.55
2022-10-08T02:05:48.229Z,18.42
2022-10-08T02:08:34.322Z,19.62
2022-10-08T02:11:20.913Z,18.15
2022-10-08T02:14:07.394Z,18.17
2022-10-08T02:17:01.362Z,17.10
2022-10-08T02:19:53.398Z,20.85
2022-10-08T02:22:58.920Z,17.70
2022-10-08T02:25:48.220Z,18.25
2022-10-08T02:28:44.717Z,18.48
2022-10-08T02:32:06.160Z,18.60
2022-10-08T02:35:15.274Z,16.25
2022-10-08T02:38:06.901Z,18.98
2022-10-08T02:40:57.037Z,17.57
2022-10-08T02:43:47.168Z,17.83
2022-10-08T02:46:37.940Z,16.45
2022-10-08T02:49:27.639Z,17.15
2022-10-08T02:52:14.646Z,18.07
2022-10-08T02:55:01.598Z,15.85
2022-10-08T02:57:55.792Z,16.95
2022-10-08T03:01:04.113Z,15.73
2022-10-08T03:03:57.244Z,18.35
2022-10-08T03:06:43.665Z,15.90
2022-10-08T03:09:42.591Z,19.15
2022-10-08T03:12:30.349Z,18.43
2022-10-08T03:15:16.447Z,18.10
2022-10-08T03:18:04.322Z,17.27
2022-10-08T03:20:51.594Z,19.67
2022-10-08T03:23:37.571Z,20.58
2022-10-08T03:26:23.955Z,25.62
2022-10-08T03:29:10.082Z,17.80
2022-10-08T03:31:56.558Z,17.60
2022-10-08T03:34:42.439Z,17.23
2022-10-08T03:37:28.626Z,19.90
2022-10-08T03:40:14.809Z,19.55
2022-10-08T03:43:01.092Z,18.85
2022-10-08T03:45:53.767Z,18.42
2022-10-08T03:48:40.991Z,17.05
2022-10-08T03:51:27.223Z,19.07
2022-10-08T03:54:13.640Z,19.80
2022-10-08T03:56:59.431Z,18.75
2022-10-08T03:59:45.745Z,18.02
2022-10-08T04:02:35.102Z,21.77
2022-10-08T04:05:21.657Z,20.40
2022-10-08T04:08:07.445Z,16.62
2022-10-08T04:10:54.092Z,18.73
2022-10-08T04:13:40.936Z,15.77
2022-10-08T04:16:27.165Z,17.80
2022-10-08T04:19:13.135Z,15.55
2022-10-08T04:21:59.413Z,14.70
2022-10-08T04:24:45.771Z,16.67
2022-10-08T04:27:32.282Z,16.17
2022-10-08T04:30:18.490Z,15.45
2022-10-08T04:33:04.864Z,14.43
2022-10-08T04:35:50.764Z,15.40
2022-10-08T04:38:37.054Z,16.75
2022-10-08T04:41:25.640Z,16.63
2022-10-08T04:44:12.185Z,17.52
2022-10-08T04:46:57.991Z,17.47
2022-10-08T04:49:44.940Z,18.62
2022-10-08T04:52:31.925Z,21.20
2022-10-08T04:55:18.432Z,21.50
2022-10-08T04:58:04.627Z,20.30
2022-10-08T05:00:51.751Z,17.30
2022-10-08T05:03:43.141Z,18.00
2022-10-08T05:06:30.639Z,17.27
2022-10-08T05:09:16.693Z,16.80
2022-10-08T05:12:02.982Z,18.65
2022-10-08T05:14:49.294Z,16.60
2022-10-08T05:17:35.713Z,17.27
2022-10-08T05:20:21.591Z,17.17
2022-10-08T05:23:07.940Z,16.03
2022-10-08T05:25:53.683Z,18.10
2022-10-08T05:28:40.142Z,18.17
2022-10-08T05:31:28.107Z,19.27
2022-10-08T05:34:15.479Z,19.90
2022-10-08T05:37:02.017Z,22.48
2022-10-08T05:39:48.352Z,20.48
2022-10-08T05:42:34.491Z,19.98
2022-10-08T05:45:20.888Z,19.00
2022-10-08T05:48:06.659Z,23.62
2022-10-08T05:50:53.008Z,22.27
2022-10-08T05:53:40.301Z,21.05
2022-10-08T05:56:27.701Z,22.73
2022-10-08T05:59:22.722Z,21.30
2022-10-08T06:02:10.502Z,23.85
2022-10-08T06:04:57.259Z,23.83
2022-10-08T06:07:43.453Z,24.03
2022-10-08T06:10:32.013Z,24.57
2022-10-08T06:13:19.733Z,27.45
2022-10-08T06:16:08.520Z,28.58
2022-10-08T06:18:54.524Z,31.52
2022-10-08T06:21:40.883Z,28.50
2022-10-08T06:24:27.255Z,28.30
2022-10-08T06:27:13.541Z,27.40
2022-10-08T06:29:59.986Z,28.50
2022-10-08T06:32:46.678Z,31.70
2022-10-08T06:35:32.547Z,32.57
2022-10-08T06:38:19.204Z,32.35
2022-10-08T06:41:05.718Z,36.10
2022-10-08T06:43:52.541Z,35.08
2022-10-08T06:46:38.838Z,31.35
2022-10-08T06:49:26.804Z,31.50
2022-10-08T06:52:13.100Z,31.20
2022-10-08T06:54:59.476Z,35.80
2022-10-08T06:57:48.358Z,32.15
2022-10-08T07:00:35.171Z,30.30
2022-10-08T07:03:21.344Z,30.12
2022-10-08T07:06:10.193Z,28.30
2022-10-08T07:09:00.116Z,27.17
2022-10-08T07:11:46.366Z,27.27
2022-10-08T07:14:32.680Z,25.25
2022-10-08T07:17:19.314Z,26.98
2022-10-08T07:20:06.188Z,25.58
2022-10-08T07:22:52.550Z,24.00
2022-10-08T07:25:38.661Z,36.55
2022-10-08T07:28:26.413Z,32.22
2022-10-08T07:31:21.440Z,28.23
2022-10-08T07:34:11.321Z,23.80
2022-10-08T07:36:57.303Z,24.27
2022-10-08T07:39:43.866Z,26.20
2022-10-08T07:42:31.730Z,25.23
2022-10-08T07:45:18.286Z,25.52
2022-10-08T07:48:04.562Z,24.23
2022-10-08T07:50:51.039Z,22.62
2022-10-08T07:53:37.058Z,25.08
2022-10-08T07:56:23.612Z,20.23
2022-10-08T07:59:09.698Z,20.35
2022-10-08T08:01:56.207Z,22.05
2022-10-08T08:04:42.639Z,21.58
2022-10-08T08:07:29.502Z,19.73
2022-10-08T08:10:15.853Z,22.55
2022-10-08T08:13:01.813Z,19.58
2022-10-08T08:15:48.093Z,19.37
2022-10-08T08:18:37.152Z,20.37
2022-10-08T08:21:33.949Z,18.40
2022-10-08T08:24:19.970Z,20.95
2022-10-08T08:27:06.400Z,19.08
2022-10-08T08:29:52.756Z,19.00
2022-10-08T08:32:39.138Z,18.57
2022-10-08T08:35:25.695Z,19.60
2022-10-08T08:38:11.853Z,18.08
2022-10-08T08:41:11.836Z,18.15
2022-10-08T08:44:02.694Z,18.63
2022-10-08T08:46:59.126Z,16.62
2022-10-08T08:50:21.329Z,19.10
2022-10-08T08:53:09.502Z,17.12
2022-10-08T08:55:58.889Z,18.62
2022-10-08T08:59:05.307Z,17.67
2022-10-08T09:01:54.837Z,23.02
2022-10-08T09:04:45.492Z,17.58
2022-10-08T09:07:55.699Z,17.30
2022-10-08T09:10:47.716Z,18.83
2022-10-08T09:13:37.917Z,17.15
2022-10-08T09:16:25.417Z,19.73
2022-10-08T09:19:12.208Z,17.87
2022-10-08T09:21:58.113Z,18.20
2022-10-08T09:24:44.525Z,15.57
2022-10-08T09:28:05.961Z,20.55
2022-10-08T09:30:53.438Z,18.17
2022-10-08T09:33:41.787Z,16.63
2022-10-08T09:36:35.205Z,19.08
2022-10-08T09:39:22.144Z,18.35
2022-10-08T09:42:08.359Z,15.30
2022-10-08T09:45:00.648Z,18.12
2022-10-08T09:48:10.102Z,18.53
2022-10-08T09:51:00.437Z,16.70
2022-10-08T09:53:50.094Z,15.30
2022-10-08T09:56:35.932Z,16.30
2022-10-08T09:59:23.713Z,16.17
2022-10-08T10:02:39.167Z,15.02
2022-10-08T10:05:27.522Z,17.70
2022-10-08T10:08:43.373Z,14.18
2022-10-08T10:11:34.828Z,16.20
2022-10-08T10:14:28.227Z,13.60
2022-10-08T10:17:39.552Z,13.18
2022-10-08T10:20:37.447Z,10.35
2022-10-08T10:23:50.439Z,12.13
2022-10-08T10:26:39.445Z,12.77
2022-10-08T10:29:30.869Z,10.50
2022-10-08T14:39:00.685Z,8.82
2022-10-08T14:41:47.149Z,8.65
2022-10-08T15:15:21.368Z,7.55
2022-10-08T15:18:07.880Z,10.10
2022-10-08T15:20:55.690Z,7.65
